الصفحة الرئيسية
METAR-TAF:

METAR-TAF

مطار :

مطار دمشق الدولي

دمشق, سوريا

دائرة عرض: 33-25N, خط طول: 036-31E, ارتفاع: 608 متر

مراقبة الطقس الحالي

تاريخ ووقت الإصدار 15 دقيقة قبل الساعة 09:00UTC
ريح 8 عقدة من الشمال الشرقي
درجة الحرارة 26°درجة مئوية
الرطوبة 39%
ضغط 1015 hPa
الرؤية: 7000 متر

METAR: OSDI 170900Z 04008KT 7000 26/11 Q1015

زمن: 12:15 (09:15 UTC)

توقعات

تاريخ ووقت الإصدار 4ساعات و 45 دقيقة قبل الساعة 04:30UTC
التوقعات صالحة من17 الساعة 06 UTC إلى 18 الساعة 12 UTC
ريح 10 عقدة من الجنوب الغربي
الرؤية 10 كم أو أكثر
غيوم قليلة على ارتفاع 3000 قدم
غيوم متفرقة على ارتفاع 10000 قدم
أصبح
من 17 الساعة 18 UTC إلى 17 الساعة 20 UTC
ريح 3 عقدةمن اتجاهات متغيرة
الرؤية 10 كم أو أكثر
الغيوم لا تقل 1500 م ولا وجود لمزنة ركامية السحاب الأسود

TAF: OSDI 170430Z 1706/1812 22010KT 9999 FEW030 SCT100 BECMG 1718/1720 VRB03KT CAVOK

أرصاد الطقس والتوقعات من أكثر من 4000 مطار (تقارير الطقس للمطار METAR والتنبؤ بالطقس بالمطارTAF).

المحطات المتاحة هي النقط الصفراء والحمراء على الخريطة.

حرك المؤشر فوق النقطة لمعرفة اسم المحطة.

ثم انقر لمعرفة أرصاد وتوقعات الطقس.

لتغيير الخارطة: اضغط على الأزرار الخضراء مع رمز الصليب الأسود للتكبير. على الزر الأخضر مع شرطة للتصغير، أو على الأسهم الخضراء للخرائط المجاورة.


METAR-TAF: